Time;durP1;ratioP1;P1;durP2;ratioP2;P2;SDS_P1;SDS_P2;PMS_P1;PMS_P2;Temp;Humidity;BMP_temperature;BMP_pressure;BME280_temperature;BME280_humidity;BME280_pressure;Samples;Min_cycle;Max_cycle;Signal;HPM_P1;HPM_P2
2022/08/27 00:00:22;;;;;;;;;;;;;;;26.73;48.06;99382.50;2094296;28;20029;-37
2022/08/27 00:01:23;;;;;;;;;;;;;;;26.73;48.20;99382.50;2096030;28;20150;-37
2022/08/27 00:02:23;;;;;;;;;;;;;;;26.72;48.18;99378.84;2094948;28;19937;-37
2022/08/27 00:03:24;;;;;;;;;;;;;;;26.73;48.06;99382.50;2097928;28;20170;-37
2022/08/27 00:04:24;;;;;;;;;;;;;;;26.71;48.18;99379.94;2096080;28;20211;-37
2022/08/27 00:05:25;;;;;;;;;;;;;;;26.73;48.00;99382.50;2093928;28;19920;-37
2022/08/27 00:06:25;;;;;;;;;;;;;;;26.73;48.23;99388.84;2095208;28;19913;-37
2022/08/27 00:07:26;;;;;;;;;;;;;;;26.72;48.28;99383.53;2093247;28;19950;-37
2022/08/27 00:08:26;;;;;;;;;;;;;;;26.72;48.10;99372.47;2097880;28;19963;-36
2022/08/27 00:09:26;;;;;;;;;;;;;;;26.72;48.14;99378.00;2094283;28;20370;-37
2022/08/27 00:10:27;;;;;;;;;;;;;;;26.72;48.30;99381.63;2097031;28;19916;-37
2022/08/27 00:11:28;;;;;;;;;;;;;;;26.72;48.30;99375.25;2095567;28;20132;-37
2022/08/27 00:12:29;;;;;;;;;;;;;;;26.71;48.30;99379.94;2097543;28;19973;-37
2022/08/27 00:13:29;;;;;;;;;;;;;;;26.72;48.26;99375.25;2098722;28;19966;-37
2022/08/27 00:14:29;;;;;;;;;;;;;;;26.72;48.28;99369.72;2098918;28;19919;-37
2022/08/27 00:15:30;;;;;;;;;;;;;;;26.72;48.05;99383.53;2096664;28;19912;-37
2022/08/27 00:16:31;;;;;;;;;;;;;;;26.71;48.01;99379.94;2098281;28;20143;-37
2022/08/27 00:17:34;;;;;;;;;;;;;;;26.70;48.17;99374.59;2093100;28;19971;-43
2022/08/27 00:18:35;;;;;;;;;;;;;;;26.70;48.20;99374.59;2092106;28;19916;-43
2022/08/27 00:19:37;;;;;;;;;;;;;;;26.70;48.37;99378.25;2097902;28;19916;-46
2022/08/27 00:20:38;;;;;;;;;;;;;;;26.70;48.33;99381.00;2095575;28;19916;-45
2022/08/27 00:21:38;;;;;;;;;;;;;;;26.70;48.24;99382.91;2106012;28;19922;-46
2022/08/27 00:22:38;;;;;;;;;;;;;;;26.69;48.40;99379.28;2100483;28;19908;-46
2022/08/27 00:23:39;;;;;;;;;;;;;;;26.70;48.31;99380.13;2100133;28;19912;-46
2022/08/27 00:24:39;;;;;;;;;;;;;;;26.70;48.09;99388.44;2098038;28;20334;-45
2022/08/27 00:25:39;;;;;;;;;;;;;;;26.70;48.12;99382.91;2096156;28;19920;-43
2022/08/27 00:26:40;;;;;;;;;;;;;;;26.69;48.16;99382.06;2088497;28;20086;-46
2022/08/27 00:27:41;;;;;;;;;;;;;;;26.70;48.13;99380.13;2095871;28;20399;-45
2022/08/27 00:28:41;;;;;;;;;;;;;;;26.69;48.20;99375.69;2095265;28;19943;-46
2022/08/27 00:29:42;;;;;;;;;;;;;;;26.69;48.30;99384.81;2096903;28;20393;-45
2022/08/27 00:30:42;;;;;;;;;;;;;;;26.70;48.33;99382.91;2094043;28;19946;-46
2022/08/27 00:31:42;;;;;;;;;;;;;;;26.69;48.52;99386.75;2093590;28;19958;-46
2022/08/27 00:32:43;;;;;;;;;;;;;;;26.69;48.24;99387.59;2093786;28;19916;-45
2022/08/27 00:33:43;;;;;;;;;;;;;;;26.69;48.27;99386.75;2092136;28;19920;-45
2022/08/27 00:34:44;;;;;;;;;;;;;;;26.69;48.57;99384.81;2100993;28;20559;-45
2022/08/27 00:35:44;;;;;;;;;;;;;;;26.68;48.39;99391.44;2097565;28;19947;-45
2022/08/27 00:36:45;;;;;;;;;;;;;;;26.69;48.50;99389.50;2097037;28;19920;-45
2022/08/27 00:37:45;;;;;;;;;;;;;;;26.69;48.21;99386.75;2097829;28;19962;-45
2022/08/27 00:38:46;;;;;;;;;;;;;;;26.69;48.34;99383.97;2096612;28;20645;-46
2022/08/27 00:39:46;;;;;;;;;;;;;;;26.69;48.52;99386.75;2100513;28;19938;-45
2022/08/27 00:40:47;;;;;;;;;;;;;;;26.69;48.50;99386.75;2092633;28;19920;-45
2022/08/27 00:41:47;;;;;;;;;;;;;;;26.69;48.24;99376.53;2096718;28;20002;-48
2022/08/27 00:42:49;;;;;;;;;;;;;;;26.69;48.29;99375.69;2096439;28;19942;-45
2022/08/27 00:43:52;;;;;;;;;;;;;;;26.69;48.29;99375.69;2104666;28;19916;-46
2022/08/27 00:44:52;;;;;;;;;;;;;;;26.69;48.45;99381.22;2095334;28;19916;-45
2022/08/27 00:45:57;;;;;;;;;;;;;;;26.68;48.34;99379.53;2097656;28;20425;-45
2022/08/27 00:47:11;;;;;;;;;;;;;;;26.69;48.49;99381.22;2096327;28;20480;-45
2022/08/27 00:48:14;;;;;;;;;;;;;;;26.69;48.50;99386.75;2096241;28;19923;-44
2022/08/27 00:49:20;;;;;;;;;;;;;;;26.68;48.33;99390.59;2094326;28;19921;-45
2022/08/27 00:50:40;;;;;;;;;;;;;;;26.68;48.51;99390.59;2094016;28;19942;-45
2022/08/27 00:51:42;;;;;;;;;;;;;;;26.68;48.21;99396.13;2091648;28;19981;-45
2022/08/27 00:52:47;;;;;;;;;;;;;;;26.68;48.31;99391.44;2095199;28;19912;-45
2022/08/27 00:53:48;;;;;;;;;;;;;;;26.67;48.34;99389.72;2099452;28;19916;-45
2022/08/27 00:54:52;;;;;;;;;;;;;;;26.68;48.24;99390.59;2094920;28;20027;-45
2022/08/27 00:55:58;;;;;;;;;;;;;;;26.68;48.26;99396.13;2084082;28;19917;-45
2022/08/27 00:56:59;;;;;;;;;;;;;;;26.67;48.25;99389.72;2091379;28;20630;-45
2022/08/27 00:58:15;;;;;;;;;;;;;;;26.67;48.53;99394.41;2096017;28;19916;-45
2022/08/27 00:59:16;;;;;;;;;;;;;;;26.67;48.48;99391.63;2091980;28;19912;-45
2022/08/27 01:00:18;;;;;;;;;;;;;;;26.67;48.55;99388.88;2092987;28;19922;-45
2022/08/27 01:01:21;;;;;;;;;;;;;;;26.66;48.62;99393.56;2096255;28;20132;-44
2022/08/27 01:02:24;;;;;;;;;;;;;;;26.66;48.46;99398.25;2098164;28;20163;-45
2022/08/27 01:03:25;;;;;;;;;;;;;;;26.65;48.59;99394.59;2092404;28;20193;-45
2022/08/27 01:04:26;;;;;;;;;;;;;;;26.65;48.28;99391.00;2095122;28;19916;-45
2022/08/27 01:05:27;;;;;;;;;;;;;;;26.65;48.30;99393.75;2092996;28;20322;-45
2022/08/27 01:06:30;;;;;;;;;;;;;;;26.65;48.60;99379.94;2099554;28;19916;-46
2022/08/27 01:07:32;;;;;;;;;;;;;;;26.65;48.35;99386.31;2103808;28;19905;-45
2022/08/27 01:08:35;;;;;;;;;;;;;;;26.65;48.30;99385.47;2090015;28;19916;-45
2022/08/27 01:09:36;;;;;;;;;;;;;;;26.64;48.63;99379.09;2098947;28;19956;-45
2022/08/27 01:10:37;;;;;;;;;;;;;;;26.64;48.63;99381.00;2094236;28;19905;-45
2022/08/27 01:11:37;;;;;;;;;;;;;;;26.65;48.62;99374.41;2092388;28;19923;-45
2022/08/27 01:12:38;;;;;;;;;;;;;;;26.64;48.38;99381.00;2095027;28;19916;-45
2022/08/27 01:13:38;;;;;;;;;;;;;;;26.64;48.36;99378.25;2099660;28;19916;-45
2022/08/27 01:14:40;;;;;;;;;;;;;;;26.65;48.35;99379.94;2093168;28;20547;-45
2022/08/27 01:15:41;;;;;;;;;;;;;;;26.64;48.34;99386.53;2103732;28;19920;-46
2022/08/27 01:16:53;;;;;;;;;;;;;;;26.65;48.57;99385.47;2097061;28;20019;-46
2022/08/27 01:17:53;;;;;;;;;;;;;;;26.64;48.61;99383.78;2096516;28;20006;-45
2022/08/27 01:18:54;;;;;;;;;;;;;;;26.65;48.34;99391.00;2096575;28;20241;-45
2022/08/27 01:19:57;;;;;;;;;;;;;;;26.65;48.29;99382.69;2098160;28;19938;-45
2022/08/27 01:21:11;;;;;;;;;;;;;;;26.65;48.31;99382.69;2097558;28;20285;-45
2022/08/27 01:22:31;;;;;;;;;;;;;;;26.64;48.35;99378.25;2092385;28;19956;-45
2022/08/27 01:23:39;;;;;;;;;;;;;;;26.64;48.42;99372.72;2093753;28;20024;-45
2022/08/27 01:24:39;;;;;;;;;;;;;;;26.64;48.20;99379.09;2094063;28;20033;-45
2022/08/27 01:25:41;;;;;;;;;;;;;;;26.64;48.27;99373.56;2098711;28;19916;-45
2022/08/27 01:26:41;;;;;;;;;;;;;;;26.64;48.28;99383.78;2100543;28;20340;-45
2022/08/27 01:27:43;;;;;;;;;;;;;;;26.65;48.30;99385.47;2101960;28;19908;-44
2022/08/27 01:28:43;;;;;;;;;;;;;;;26.64;48.25;99383.78;2094813;28;19916;-45
2022/08/27 01:29:44;;;;;;;;;;;;;;;26.64;48.37;99378.25;2095487;28;19974;-44
2022/08/27 01:30:44;;;;;;;;;;;;;;;26.64;48.31;99375.50;2093537;28;20286;-45
2022/08/27 01:31:45;;;;;;;;;;;;;;;26.63;48.51;99371.00;2096342;28;19919;-45
2022/08/27 01:32:45;;;;;;;;;;;;;;;26.63;48.43;99376.53;2097935;28;19917;-46
2022/08/27 01:33:53;;;;;;;;;;;;;;;26.63;48.27;99376.53;2098594;28;20392;-45
2022/08/27 01:34:53;;;;;;;;;;;;;;;26.63;48.25;99373.78;2098065;28;20043;-45
2022/08/27 01:35:54;;;;;;;;;;;;;;;26.63;48.36;99371.00;2097936;28;19919;-45
2022/08/27 01:36:55;;;;;;;;;;;;;;;26.63;48.24;99376.53;2096301;28;19920;-45
2022/08/27 01:37:55;;;;;;;;;;;;;;;26.62;48.53;99370.16;2095464;28;19966;-45
2022/08/27 01:38:55;;;;;;;;;;;;;;;26.63;48.25;99371.00;2093647;28;19916;-45
2022/08/27 01:39:57;;;;;;;;;;;;;;;26.62;48.29;99370.16;2090958;28;19917;-45
2022/08/27 01:40:58;;;;;;;;;;;;;;;26.63;48.45;99371.00;2091282;28;19955;-45
2022/08/27 01:42:06;;;;;;;;;;;;;;;26.63;48.18;99365.47;2094836;28;20355;-45
2022/08/27 01:43:06;;;;;;;;;;;;;;;26.63;48.23;99371.00;2093179;28;19920;-44
2022/08/27 01:44:07;;;;;;;;;;;;;;;26.62;48.39;99366.56;2090517;28;19947;-45
2022/08/27 01:45:13;;;;;;;;;;;;;;;26.62;48.35;99372.09;2083363;28;19935;-45
2022/08/27 01:46:13;;;;;;;;;;;;;;;26.63;48.52;99371.00;2091520;28;19916;-45
2022/08/27 01:47:15;;;;;;;;;;;;;;;26.62;48.44;99372.09;2091484;28;20461;-45
2022/08/27 01:48:18;;;;;;;;;;;;;;;26.62;48.59;99377.63;2094348;28;19916;-45
2022/08/27 01:49:18;;;;;;;;;;;;;;;26.61;48.29;99374.00;2098869;28;20338;-45
2022/08/27 01:50:23;;;;;;;;;;;;;;;26.61;48.34;99367.63;2093269;28;19967;-45
2022/08/27 01:51:24;;;;;;;;;;;;;;;26.60;48.62;99363.16;2095678;28;19915;-45
2022/08/27 01:52:26;;;;;;;;;;;;;;;26.60;48.40;99366.75;2096599;28;20335;-44
2022/08/27 01:53:27;;;;;;;;;;;;;;;26.59;48.56;99367.84;2099198;28;19981;-45
2022/08/27 01:54:28;;;;;;;;;;;;;;;26.59;48.48;99364.25;2097082;28;20544;-44
2022/08/27 01:55:29;;;;;;;;;;;;;;;26.59;48.54;99365.09;2095954;28;19917;-44
2022/08/27 01:56:29;;;;;;;;;;;;;;;26.60;48.66;99364.00;2097533;28;19980;-45
2022/08/27 01:57:31;;;;;;;;;;;;;;;26.59;48.70;99359.56;2094166;28;19965;-44
2022/08/27 01:58:32;;;;;;;;;;;;;;;26.60;48.51;99360.41;2098092;28;19916;-45
2022/08/27 01:59:33;;;;;;;;;;;;;;;26.59;48.64;99361.47;2098105;28;19916;-44
2022/08/27 02:00:35;;;;;;;;;;;;;;;26.60;48.45;99360.41;2091769;28;19924;-44
2022/08/27 02:01:35;;;;;;;;;;;;;;;26.59;48.42;99358.72;2091779;28;19912;-44
2022/08/27 02:02:35;;;;;;;;;;;;;;;26.60;48.52;99368.69;2091306;28;19916;-45
2022/08/27 02:03:39;;;;;;;;;;;;;;;26.61;48.71;99362.13;2097375;28;19919;-45
2022/08/27 02:04:40;;;;;;;;;;;;;;;26.60;48.41;99365.91;2094247;28;19924;-43
2022/08/27 02:05:40;;;;;;;;;;;;;;;26.59;48.44;99362.31;2096560;28;19912;-44
2022/08/27 02:06:40;;;;;;;;;;;;;;;26.60;48.67;99360.41;2091368;28;20446;-44
2022/08/27 02:07:41;;;;;;;;;;;;;;;26.58;48.65;99360.63;2095784;28;19991;-44
2022/08/27 02:08:42;;;;;;;;;;;;;;;26.59;48.48;99362.31;2090899;28;19950;-44
2022/08/27 02:09:42;;;;;;;;;;;;;;;26.59;48.43;99367.00;2097338;28;20030;-44
2022/08/27 02:10:43;;;;;;;;;;;;;;;26.60;48.46;99368.69;2108169;28;20003;-44
2022/08/27 02:11:44;;;;;;;;;;;;;;;26.59;48.68;99367.84;2092480;28;19919;-44
2022/08/27 02:12:44;;;;;;;;;;;;;;;26.59;48.43;99364.25;2091625;28;20298;-44
2022/08/27 02:13:44;;;;;;;;;;;;;;;26.59;48.46;99364.25;2091365;28;20003;-44
2022/08/27 02:14:45;;;;;;;;;;;;;;;26.60;48.56;99371.44;2097919;28;20471;-44
2022/08/27 02:15:45;;;;;;;;;;;;;;;26.59;48.82;99359.56;2098452;28;19931;-44
2022/08/27 02:16:46;;;;;;;;;;;;;;;26.60;48.76;99360.41;2092460;28;19986;-44
2022/08/27 02:17:46;;;;;;;;;;;;;;;26.59;48.50;99364.25;2091063;28;19921;-44
2022/08/27 02:18:47;;;;;;;;;;;;;;;26.59;48.77;99358.72;2097971;28;19909;-44
2022/08/27 02:19:47;;;;;;;;;;;;;;;26.58;48.64;99357.88;2099536;28;20562;-44
2022/08/27 02:20:48;;;;;;;;;;;;;;;26.59;48.60;99358.72;2094141;28;19966;-44
2022/08/27 02:21:49;;;;;;;;;;;;;;;26.60;48.79;99363.16;2096194;28;19923;-44
2022/08/27 02:22:49;;;;;;;;;;;;;;;26.59;48.60;99361.47;2097991;28;20431;-43
2022/08/27 02:23:50;;;;;;;;;;;;;;;26.59;48.49;99365.09;2093613;28;19916;-45
2022/08/27 02:24:50;;;;;;;;;;;;;;;26.58;48.73;99368.03;2097362;28;19923;-45
2022/08/27 02:25:50;;;;;;;;;;;;;;;26.58;48.69;99359.75;2097366;28;19989;-44
2022/08/27 02:26:51;;;;;;;;;;;;;;;26.58;48.72;99357.00;2098466;28;19920;-44
2022/08/27 02:27:51;;;;;;;;;;;;;;;26.58;48.46;99354.22;2099907;28;20326;-44
2022/08/27 02:28:51;;;;;;;;;;;;;;;26.59;48.58;99364.25;2090011;28;20005;-44
2022/08/27 02:29:52;;;;;;;;;;;;;;;26.58;48.76;99368.03;2090854;28;19940;-44
2022/08/27 02:30:52;;;;;;;;;;;;;;;26.58;48.70;99362.53;2091797;28;19916;-44
2022/08/27 02:31:53;;;;;;;;;;;;;;;26.57;48.48;99363.59;2093098;28;19920;-44
2022/08/27 02:32:53;;;;;;;;;;;;;;;26.57;48.73;99363.59;2092800;28;19964;-44
2022/08/27 02:33:53;;;;;;;;;;;;;;;26.57;48.56;99366.38;2095808;28;19922;-44
2022/08/27 02:34:55;;;;;;;;;;;;;;;26.57;48.83;99366.38;2095457;28;19924;-44
2022/08/27 02:35:55;;;;;;;;;;;;;;;26.57;48.58;99366.38;2099871;28;19923;-44
2022/08/27 02:36:56;;;;;;;;;;;;;;;26.56;48.59;99359.16;2097781;28;19999;-44
2022/08/27 02:37:57;;;;;;;;;;;;;;;26.56;48.57;99364.69;2097101;28;19919;-46
2022/08/27 02:38:57;;;;;;;;;;;;;;;26.56;48.91;99364.69;2098709;28;19911;-44
2022/08/27 02:39:57;;;;;;;;;;;;;;;26.56;48.83;99361.91;2102831;28;19916;-44
2022/08/27 02:40:57;;;;;;;;;;;;;;;26.56;48.76;99364.69;2090540;28;20027;-44
2022/08/27 02:41:58;;;;;;;;;;;;;;;26.55;48.60;99368.50;2094410;28;19945;-44
2022/08/27 02:42:58;;;;;;;;;;;;;;;26.55;48.80;99368.50;2098649;28;20414;-44
2022/08/27 02:44:00;;;;;;;;;;;;;;;26.55;48.53;99365.72;2091773;28;20191;-44
2022/08/27 02:45:00;;;;;;;;;;;;;;;26.55;48.72;99365.72;2092071;28;20143;-44
2022/08/27 02:46:01;;;;;;;;;;;;;;;26.55;48.59;99362.97;2099029;28;19919;-44
2022/08/27 02:47:01;;;;;;;;;;;;;;;26.56;48.73;99370.22;2091325;28;19979;-45
2022/08/27 02:48:02;;;;;;;;;;;;;;;26.56;48.72;99367.44;2092076;28;19916;-45
2022/08/27 02:49:03;;;;;;;;;;;;;;;26.56;48.79;99370.22;2096940;28;19959;-45
2022/08/27 02:50:04;;;;;;;;;;;;;;;26.56;48.50;99364.69;2094032;28;19943;-45
2022/08/27 02:51:05;;;;;;;;;;;;;;;26.55;48.48;99368.50;2091624;28;19912;-45
2022/08/27 02:52:05;;;;;;;;;;;;;;;26.56;48.67;99375.72;2094368;28;20019;-45
2022/08/27 02:53:06;;;;;;;;;;;;;;;26.55;48.51;99365.72;2091808;28;19920;-45
2022/08/27 02:54:06;;;;;;;;;;;;;;;26.56;48.48;99359.16;2097446;28;19992;-45
2022/08/27 02:55:07;;;;;;;;;;;;;;;26.56;48.49;99371.06;2098586;28;20308;-44
2022/08/27 02:56:07;;;;;;;;;;;;;;;26.55;48.42;99368.50;2098192;28;20396;-45
2022/08/27 02:57:08;;;;;;;;;;;;;;;26.56;48.54;99370.22;2098209;28;19920;-45
2022/08/27 02:58:08;;;;;;;;;;;;;;;26.55;48.41;99369.34;2097911;28;19923;-45
2022/08/27 02:59:09;;;;;;;;;;;;;;;26.55;48.75;99362.97;2098314;28;19923;-45
2022/08/27 03:00:11;;;;;;;;;;;;;;;26.56;48.51;99370.22;2098202;28;19916;-45
2022/08/27 03:01:11;;;;;;;;;;;;;;;26.55;48.49;99366.56;2100099;28;19923;-45
2022/08/27 03:02:11;;;;;;;;;;;;;;;26.56;48.72;99367.44;2096909;28;19919;-45
2022/08/27 03:03:12;;;;;;;;;;;;;;;26.55;48.40;99369.34;2096240;28;19912;-45
2022/08/27 03:04:12;;;;;;;;;;;;;;;26.55;48.45;99366.56;2091935;28;19923;-46
2022/08/27 03:05:13;;;;;;;;;;;;;;;26.54;48.48;99364.03;2090884;28;19924;-45
2022/08/27 03:06:14;;;;;;;;;;;;;;;26.55;48.44;99362.97;2093212;28;19912;-45
2022/08/27 03:07:14;;;;;;;;;;;;;;;26.54;48.71;99364.88;2099255;28;20290;-45
2022/08/27 03:08:15;;;;;;;;;;;;;;;26.55;48.46;99362.97;2095548;28;19912;-45
2022/08/27 03:09:15;;;;;;;;;;;;;;;26.55;48.70;99361.03;2098351;28;19908;-44
2022/08/27 03:10:16;;;;;;;;;;;;;;;26.55;48.50;99368.50;2093227;28;19978;-45
2022/08/27 03:11:17;;;;;;;;;;;;;;;26.55;48.67;99358.28;2095297;28;19920;-45
2022/08/27 03:12:17;;;;;;;;;;;;;;;26.54;48.51;99366.81;2092705;28;20526;-45
2022/08/27 03:13:18;;;;;;;;;;;;;;;26.54;48.45;99362.13;2092971;28;19923;-45
2022/08/27 03:14:18;;;;;;;;;;;;;;;26.54;48.74;99364.88;2097688;28;19950;-44
2022/08/27 03:15:18;;;;;;;;;;;;;;;26.54;48.71;99369.56;2098759;28;19923;-45
2022/08/27 03:16:19;;;;;;;;;;;;;;;26.54;48.45;99361.28;2098123;28;19927;-45
2022/08/27 03:18:39;;;;;;;;;;;;;;;26.52;48.79;99358.69;2090690;28;20132;-45
2022/08/27 03:19:39;;;;;;;;;;;;;;;26.52;48.63;99354.00;2092181;28;19959;-45
2022/08/27 03:20:40;;;;;;;;;;;;;;;26.51;48.57;99359.75;2095121;28;19923;-45
2022/08/27 03:21:41;;;;;;;;;;;;;;;26.52;48.61;99359.53;2097405;28;19916;-46
2022/08/27 03:22:41;;;;;;;;;;;;;;;26.51;48.51;99362.53;2091655;28;19917;-46
2022/08/27 03:23:41;;;;;;;;;;;;;;;26.51;48.46;99359.75;2094925;28;19995;-45
2022/08/27 03:24:42;;;;;;;;;;;;;;;26.51;48.45;99362.53;2092309;28;19943;-45
2022/08/27 03:25:44;;;;;;;;;;;;;;;26.50;48.68;99356.13;2098836;28;20118;-45
2022/08/27 03:26:44;;;;;;;;;;;;;;;26.50;48.51;99360.81;2098339;28;20331;-45
2022/08/27 03:27:45;;;;;;;;;;;;;;;26.49;48.66;99353.59;2098474;28;19916;-45
2022/08/27 03:28:45;;;;;;;;;;;;;;;26.49;48.41;99362.72;2098915;28;20319;-45
2022/08/27 03:29:47;;;;;;;;;;;;;;;26.49;48.61;99362.72;2095799;28;19915;-45
2022/08/27 03:30:50;;;;;;;;;;;;;;;26.49;48.47;99362.72;2096842;28;20181;-45
2022/08/27 03:31:50;;;;;;;;;;;;;;;26.49;48.52;99361.88;2096128;28;19947;-45
2022/08/27 03:32:51;;;;;;;;;;;;;;;26.49;48.45;99357.22;2100064;28;20381;-45
2022/08/27 03:33:53;;;;;;;;;;;;;;;26.50;48.63;99358.88;2090387;28;19917;-45
2022/08/27 03:34:55;;;;;;;;;;;;;;;26.49;48.41;99365.50;2095541;28;19918;-45
2022/08/27 03:35:56;;;;;;;;;;;;;;;26.49;48.63;99359.13;2097135;28;19971;-45
2022/08/27 03:36:56;;;;;;;;;;;;;;;26.50;48.52;99358.88;2097833;28;19924;-45
2022/08/27 03:37:57;;;;;;;;;;;;;;;26.50;48.32;99361.66;2096508;28;20131;-45
2022/08/27 03:38:57;;;;;;;;;;;;;;;26.50;48.44;99356.13;2091432;28;19966;-45
2022/08/27 03:39:58;;;;;;;;;;;;;;;26.50;48.50;99356.13;2094892;28;20058;-45
2022/08/27 03:40:58;;;;;;;;;;;;;;;26.49;48.43;99354.44;2095097;28;19921;-45
2022/08/27 03:41:58;;;;;;;;;;;;;;;26.49;48.47;99354.44;2094677;28;19923;-44
2022/08/27 03:42:59;;;;;;;;;;;;;;;26.50;48.45;99353.38;2101209;28;20473;-45
2022/08/27 03:43:59;;;;;;;;;;;;;;;26.50;48.41;99345.06;2091871;28;20009;-46
2022/08/27 03:44:59;;;;;;;;;;;;;;;26.51;48.70;99348.72;2089579;28;19977;-45
2022/08/27 03:46:00;;;;;;;;;;;;;;;26.50;48.46;99350.59;2094090;28;19920;-45
2022/08/27 03:47:00;;;;;;;;;;;;;;;26.50;48.71;99345.06;2092097;28;20101;-45
2022/08/27 03:48:01;;;;;;;;;;;;;;;26.50;48.69;99347.84;2092084;28;20356;-45
2022/08/27 03:49:01;;;;;;;;;;;;;;;26.49;48.68;99342.53;2097336;28;20400;-45
2022/08/27 03:50:03;;;;;;;;;;;;;;;26.49;48.31;99343.38;2092039;28;20459;-45
2022/08/27 03:51:07;;;;;;;;;;;;;;;26.49;48.51;99343.38;2094208;28;19986;-43
2022/08/27 03:52:08;;;;;;;;;;;;;;;26.49;48.63;99348.06;2091218;28;19916;-45
2022/08/27 03:53:09;;;;;;;;;;;;;;;26.49;48.44;99337.88;2094823;28;20010;-45
2022/08/27 03:54:10;;;;;;;;;;;;;;;26.48;48.67;99341.72;2095612;28;20566;-45
2022/08/27 03:55:10;;;;;;;;;;;;;;;26.48;48.60;99336.19;2099226;28;20314;-44
2022/08/27 03:56:10;;;;;;;;;;;;;;;26.47;48.68;99345.50;2093415;28;20345;-45
2022/08/27 03:57:11;;;;;;;;;;;;;;;26.48;48.47;99338.06;2096246;28;20483;-45
2022/08/27 03:58:11;;;;;;;;;;;;;;;26.47;48.71;99336.38;2099627;28;19916;-45
2022/08/27 03:59:11;;;;;;;;;;;;;;;26.47;48.46;99334.47;2096764;28;20369;-45
2022/08/27 04:00:13;;;;;;;;;;;;;;;26.46;48.53;99338.31;2095791;28;20143;-45
2022/08/27 04:01:13;;;;;;;;;;;;;;;26.47;48.75;99336.38;2099789;28;20010;-45
2022/08/27 04:02:15;;;;;;;;;;;;;;;26.45;48.76;99339.34;2093727;28;20347;-46
2022/08/27 04:03:15;;;;;;;;;;;;;;;26.46;48.76;99334.69;2099700;28;19918;-45
2022/08/27 04:04:15;;;;;;;;;;;;;;;26.45;48.71;99336.59;2100016;28;20139;-45
2022/08/27 04:05:16;;;;;;;;;;;;;;;26.45;48.63;99330.22;2095463;28;19935;-45
2022/08/27 04:06:16;;;;;;;;;;;;;;;26.45;48.49;99331.06;2099970;28;19943;-45
2022/08/27 04:07:17;;;;;;;;;;;;;;;26.44;48.43;99329.38;2099033;28;20525;-45
2022/08/27 04:08:17;;;;;;;;;;;;;;;26.45;48.56;99325.53;2098431;28;19947;-45
2022/08/27 04:09:18;;;;;;;;;;;;;;;26.45;48.36;99328.28;2097059;28;19952;-44
2022/08/27 04:10:18;;;;;;;;;;;;;;;26.46;48.48;99330.00;2093535;28;21010;-45
2022/08/27 04:11:20;;;;;;;;;;;;;;;26.46;48.39;99331.94;2099362;28;20644;-45
2022/08/27 04:12:20;;;;;;;;;;;;;;;26.47;48.53;99333.63;2092284;28;19958;-46
2022/08/27 04:13:22;;;;;;;;;;;;;;;26.47;48.58;99334.47;2095661;28;20125;-45
2022/08/27 04:14:23;;;;;;;;;;;;;;;26.47;48.60;99330.84;2100022;28;19916;-45
2022/08/27 04:15:23;;;;;;;;;;;;;;;26.46;48.60;99332.78;2096641;28;19943;-45
2022/08/27 04:16:24;;;;;;;;;;;;;;;26.46;48.49;99332.78;2099609;28;20224;-45
2022/08/27 04:17:24;;;;;;;;;;;;;;;26.46;48.73;99338.31;2102355;28;19912;-45
2022/08/27 04:18:25;;;;;;;;;;;;;;;26.46;48.47;99332.78;2095930;28;19916;-44
2022/08/27 04:19:26;;;;;;;;;;;;;;;26.46;48.50;99335.53;2100536;28;20151;-45
2022/08/27 04:20:27;;;;;;;;;;;;;;;26.46;48.56;99335.53;2096218;28;20498;-45
2022/08/27 04:21:28;;;;;;;;;;;;;;;26.46;48.73;99332.78;2092661;28;19944;-45
2022/08/27 04:22:29;;;;;;;;;;;;;;;26.46;48.75;99335.53;2099833;28;19942;-45
2022/08/27 04:23:29;;;;;;;;;;;;;;;26.48;48.52;99346.34;2095377;28;20535;-45
2022/08/27 04:24:30;;;;;;;;;;;;;;;26.46;48.51;99343.84;2098673;28;19918;-45
2022/08/27 04:25:31;;;;;;;;;;;;;;;26.46;48.80;99343.84;2092076;28;20609;-45
2022/08/27 04:26:31;;;;;;;;;;;;;;;26.45;48.79;99339.34;2093453;28;20430;-45
2022/08/27 04:27:31;;;;;;;;;;;;;;;26.45;48.63;99347.63;2092689;28;19963;-45
2022/08/27 04:28:32;;;;;;;;;;;;;;;26.45;48.47;99339.34;2093852;28;20317;-45
2022/08/27 04:29:33;;;;;;;;;;;;;;;26.45;48.42;99342.13;2092961;28;19916;-45
2022/08/27 04:30:37;;;;;;;;;;;;;;;26.45;48.73;99341.28;2092573;28;20415;-45
2022/08/27 04:31:37;;;;;;;;;;;;;;;26.45;48.84;99341.28;2097135;28;19920;-45
2022/08/27 04:32:37;;;;;;;;;;;;;;;26.45;48.71;99353.16;2097711;28;19916;-45
2022/08/27 04:33:38;;;;;;;;;;;;;;;26.45;48.58;99341.28;2093129;28;19960;-44
2022/08/27 04:34:39;;;;;;;;;;;;;;;26.45;48.73;99346.78;2091535;28;19974;-45
2022/08/27 04:35:40;;;;;;;;;;;;;;;26.45;48.76;99342.13;2092259;28;19959;-44
2022/08/27 04:36:40;;;;;;;;;;;;;;;26.45;48.58;99344.88;2106210;28;19951;-45
2022/08/27 04:37:41;;;;;;;;;;;;;;;26.45;48.83;99336.59;2107362;28;19916;-45
2022/08/27 04:38:41;;;;;;;;;;;;;;;26.45;48.56;99350.41;2099584;28;19912;-45
2022/08/27 04:39:41;;;;;;;;;;;;;;;26.44;48.54;99343.19;2097732;28;19912;-45
2022/08/27 04:42:01;;;;;;;;;;;;;;;26.45;48.58;99352.31;2094576;28;19908;-45
2022/08/27 04:43:02;;;;;;;;;;;;;;;26.44;48.65;99339.59;2098270;28;19916;-45
2022/08/27 04:44:03;;;;;;;;;;;;;;;26.44;48.65;99343.19;2106060;28;20623;-45
2022/08/27 04:45:04;;;;;;;;;;;;;;;26.44;48.94;99345.97;2100464;28;19994;-44
2022/08/27 04:46:04;;;;;;;;;;;;;;;26.43;48.93;99343.41;2097876;28;20620;-45
2022/08/27 04:47:05;;;;;;;;;;;;;;;26.43;48.67;99338.72;2099602;28;19989;-45
2022/08/27 04:48:05;;;;;;;;;;;;;;;26.43;48.70;99344.25;2105622;27;19915;-45
2022/08/27 04:49:10;;;;;;;;;;;;;;;26.42;48.95;99350.84;2103542;28;20006;-45
2022/08/27 04:50:11;;;;;;;;;;;;;;;26.42;48.59;99342.56;2095796;28;19916;-46
2022/08/27 04:51:11;;;;;;;;;;;;;;;26.42;48.72;99348.09;2093990;28;19912;-45
2022/08/27 04:52:11;;;;;;;;;;;;;;;26.42;48.88;99348.09;2094256;28;19908;-45
2022/08/27 04:53:13;;;;;;;;;;;;;;;26.42;48.78;99350.00;2094799;28;19936;-45
2022/08/27 04:54:13;;;;;;;;;;;;;;;26.42;48.90;99359.13;2095988;28;19916;-45
2022/08/27 04:55:14;;;;;;;;;;;;;;;26.42;48.88;99355.53;2100472;28;19916;-45
2022/08/27 04:56:15;;;;;;;;;;;;;;;26.42;48.86;99353.59;2100230;28;19916;-45
2022/08/27 04:57:16;;;;;;;;;;;;;;;26.41;48.91;99351.94;2098637;28;19921;-45
2022/08/27 04:58:17;;;;;;;;;;;;;;;26.41;48.83;99357.44;2100861;28;19916;-45
2022/08/27 04:59:18;;;;;;;;;;;;;;;26.41;48.61;99357.44;2099241;28;20024;-45
2022/08/27 05:00:18;;;;;;;;;;;;;;;26.41;48.91;99357.44;2098473;28;19916;-45
2022/08/27 05:01:20;;;;;;;;;;;;;;;26.41;48.65;99362.97;2091002;28;20032;-45
2022/08/27 05:02:21;;;;;;;;;;;;;;;26.41;48.73;99356.56;2094995;28;20086;-45
2022/08/27 05:03:23;;;;;;;;;;;;;;;26.41;48.79;99362.97;2100348;28;20441;-45
2022/08/27 05:04:23;;;;;;;;;;;;;;;26.40;48.60;99366.78;2097127;28;19927;-45
2022/08/27 05:05:26;;;;;;;;;;;;;;;26.40;48.84;99355.72;2093851;28;19916;-45
2022/08/27 05:06:26;;;;;;;;;;;;;;;26.40;48.55;99372.31;2096181;28;20356;-45
2022/08/27 05:07:26;;;;;;;;;;;;;;;26.39;48.88;99370.63;2095926;28;19920;-45
2022/08/27 05:08:27;;;;;;;;;;;;;;;26.40;48.68;99372.31;2093840;28;19922;-45
2022/08/27 05:09:27;;;;;;;;;;;;;;;26.40;48.58;99372.31;2098936;28;20598;-45
2022/08/27 05:10:27;;;;;;;;;;;;;;;26.40;48.61;99380.59;2091985;28;19922;-45
2022/08/27 05:11:31;;;;;;;;;;;;;;;26.40;48.63;99372.31;2095299;28;20389;-45
2022/08/27 05:12:31;;;;;;;;;;;;;;;26.40;48.59;99372.31;2092108;28;19938;-45
2022/08/27 05:13:31;;;;;;;;;;;;;;;26.42;48.76;99380.41;2096775;28;19916;-45
2022/08/27 05:14:32;;;;;;;;;;;;;;;26.40;48.84;99377.84;2097080;28;19920;-45
2022/08/27 05:15:32;;;;;;;;;;;;;;;26.41;48.58;99381.44;2091788;28;20033;-45
2022/08/27 05:16:35;;;;;;;;;;;;;;;26.40;48.63;99377.84;2093842;28;20106;-46
2022/08/27 05:17:35;;;;;;;;;;;;;;;26.41;48.61;99374.03;2099663;28;19947;-45
2022/08/27 05:18:36;;;;;;;;;;;;;;;26.41;48.90;99379.56;2098824;28;19927;-44
2022/08/27 05:19:37;;;;;;;;;;;;;;;26.40;48.89;99372.31;2096562;28;19975;-45
2022/08/27 05:20:47;;;;;;;;;;;;;;;26.41;48.96;99378.69;2099173;28;19940;-45
2022/08/27 05:21:49;;;;;;;;;;;;;;;26.40;48.79;99377.84;2098776;28;20397;-45